sensor_id;sensor_type;location;lat;lon;timestamp;temperature;humidity
7708;DHT22;3896;48.758;8.888;2023-06-10T00:00:13;16.40;70.80
7708;DHT22;3896;48.758;8.888;2023-06-10T00:02:40;16.30;70.90
7708;DHT22;3896;48.758;8.888;2023-06-10T00:05:07;16.30;71.00
7708;DHT22;3896;48.758;8.888;2023-06-10T00:07:35;16.20;71.30
7708;DHT22;3896;48.758;8.888;2023-06-10T00:10:07;16.20;71.70
7708;DHT22;3896;48.758;8.888;2023-06-10T00:12:32;16.10;72.10
7708;DHT22;3896;48.758;8.888;2023-06-10T00:15:06;16.10;72.50
7708;DHT22;3896;48.758;8.888;2023-06-10T00:17:32;16.00;72.40
7708;DHT22;3896;48.758;8.888;2023-06-10T00:19:58;16.00;72.50
7708;DHT22;3896;48.758;8.888;2023-06-10T00:22:23;15.90;72.70
7708;DHT22;3896;48.758;8.888;2023-06-10T00:24:54;15.90;73.10
7708;DHT22;3896;48.758;8.888;2023-06-10T00:27:20;15.80;73.50
7708;DHT22;3896;48.758;8.888;2023-06-10T00:29:46;15.80;73.80
7708;DHT22;3896;48.758;8.888;2023-06-10T00:32:11;15.70;73.80
7708;DHT22;3896;48.758;8.888;2023-06-10T00:34:37;15.70;74.20
7708;DHT22;3896;48.758;8.888;2023-06-10T00:37:03;15.70;74.70
7708;DHT22;3896;48.758;8.888;2023-06-10T00:39:28;15.60;75.10
7708;DHT22;3896;48.758;8.888;2023-06-10T00:41:54;15.60;75.50
7708;DHT22;3896;48.758;8.888;2023-06-10T00:44:19;15.50;76.40
7708;DHT22;3896;48.758;8.888;2023-06-10T00:46:45;15.50;76.00
7708;DHT22;3896;48.758;8.888;2023-06-10T00:49:11;15.40;76.30
7708;DHT22;3896;48.758;8.888;2023-06-10T00:51:36;15.40;76.40
7708;DHT22;3896;48.758;8.888;2023-06-10T00:54:02;15.40;76.80
7708;DHT22;3896;48.758;8.888;2023-06-10T00:56:28;15.30;76.90
7708;DHT22;3896;48.758;8.888;2023-06-10T00:58:54;15.30;77.10
7708;DHT22;3896;48.758;8.888;2023-06-10T01:01:20;15.20;77.20
7708;DHT22;3896;48.758;8.888;2023-06-10T01:03:46;15.20;77.50
7708;DHT22;3896;48.758;8.888;2023-06-10T01:11:49;15.00;77.90
7708;DHT22;3896;48.758;8.888;2023-06-10T01:14:17;15.00;78.70
7708;DHT22;3896;48.758;8.888;2023-06-10T01:16:44;15.00;79.30
7708;DHT22;3896;48.758;8.888;2023-06-10T01:19:11;14.90;79.50
7708;DHT22;3896;48.758;8.888;2023-06-10T01:21:38;14.90;79.60
7708;DHT22;3896;48.758;8.888;2023-06-10T01:24:05;14.90;79.50
7708;DHT22;3896;48.758;8.888;2023-06-10T01:26:34;14.80;79.60
7708;DHT22;3896;48.758;8.888;2023-06-10T01:29:48;14.80;80.20
7708;DHT22;3896;48.758;8.888;2023-06-10T01:32:03;14.70;80.50
7708;DHT22;3896;48.758;8.888;2023-06-10T01:34:32;14.70;80.90
7708;DHT22;3896;48.758;8.888;2023-06-10T01:36:58;14.60;81.20
7708;DHT22;3896;48.758;8.888;2023-06-10T01:39:24;14.60;81.80
7708;DHT22;3896;48.758;8.888;2023-06-10T01:41:52;14.60;81.90
7708;DHT22;3896;48.758;8.888;2023-06-10T01:44:22;14.50;82.40
7708;DHT22;3896;48.758;8.888;2023-06-10T01:46:47;14.50;82.70
7708;DHT22;3896;48.758;8.888;2023-06-10T01:49:13;14.50;83.10
7708;DHT22;3896;48.758;8.888;2023-06-10T01:51:39;14.40;83.10
7708;DHT22;3896;48.758;8.888;2023-06-10T01:54:04;14.40;83.40
7708;DHT22;3896;48.758;8.888;2023-06-10T01:56:30;14.30;83.70
7708;DHT22;3896;48.758;8.888;2023-06-10T01:58:56;14.30;83.90
7708;DHT22;3896;48.758;8.888;2023-06-10T02:01:27;14.20;83.80
7708;DHT22;3896;48.758;8.888;2023-06-10T02:03:52;14.20;84.00
7708;DHT22;3896;48.758;8.888;2023-06-10T02:06:18;14.20;84.20
7708;DHT22;3896;48.758;8.888;2023-06-10T02:08:44;14.10;84.70
7708;DHT22;3896;48.758;8.888;2023-06-10T02:11:09;14.10;85.40
7708;DHT22;3896;48.758;8.888;2023-06-10T02:13:35;14.10;85.70
7708;DHT22;3896;48.758;8.888;2023-06-10T02:16:01;14.00;86.00
7708;DHT22;3896;48.758;8.888;2023-06-10T02:18:27;14.00;86.20
7708;DHT22;3896;48.758;8.888;2023-06-10T02:20:54;14.00;86.60
7708;DHT22;3896;48.758;8.888;2023-06-10T02:23:19;13.90;87.30
7708;DHT22;3896;48.758;8.888;2023-06-10T02:25:45;13.90;87.80
7708;DHT22;3896;48.758;8.888;2023-06-10T02:28:13;13.80;88.50
7708;DHT22;3896;48.758;8.888;2023-06-10T02:30:40;13.80;88.70
7708;DHT22;3896;48.758;8.888;2023-06-10T02:33:06;13.80;89.00
7708;DHT22;3896;48.758;8.888;2023-06-10T02:35:35;13.70;89.60
7708;DHT22;3896;48.758;8.888;2023-06-10T02:38:02;13.70;90.00
7708;DHT22;3896;48.758;8.888;2023-06-10T02:40:27;13.70;90.30
7708;DHT22;3896;48.758;8.888;2023-06-10T02:42:53;13.70;90.50
7708;DHT22;3896;48.758;8.888;2023-06-10T02:45:19;13.60;90.50
7708;DHT22;3896;48.758;8.888;2023-06-10T02:47:44;13.60;90.60
7708;DHT22;3896;48.758;8.888;2023-06-10T02:50:10;13.60;90.80
7708;DHT22;3896;48.758;8.888;2023-06-10T02:52:35;13.60;91.00
7708;DHT22;3896;48.758;8.888;2023-06-10T02:55:01;13.50;91.30
7708;DHT22;3896;48.758;8.888;2023-06-10T02:57:26;13.50;91.50
7708;DHT22;3896;48.758;8.888;2023-06-10T02:59:52;13.40;91.70
7708;DHT22;3896;48.758;8.888;2023-06-10T03:02:19;13.40;91.90
7708;DHT22;3896;48.758;8.888;2023-06-10T03:04:45;13.40;92.10
7708;DHT22;3896;48.758;8.888;2023-06-10T03:07:10;13.30;92.40
7708;DHT22;3896;48.758;8.888;2023-06-10T03:09:36;13.30;92.10
7708;DHT22;3896;48.758;8.888;2023-06-10T03:12:02;13.30;92.10
7708;DHT22;3896;48.758;8.888;2023-06-10T03:14:28;13.30;92.10
7708;DHT22;3896;48.758;8.888;2023-06-10T03:16:53;13.20;92.20
7708;DHT22;3896;48.758;8.888;2023-06-10T03:19:19;13.20;92.40
7708;DHT22;3896;48.758;8.888;2023-06-10T03:21:50;13.20;92.80
7708;DHT22;3896;48.758;8.888;2023-06-10T03:24:20;13.10;92.90
7708;DHT22;3896;48.758;8.888;2023-06-10T03:26:45;13.10;93.10
7708;DHT22;3896;48.758;8.888;2023-06-10T03:29:11;13.10;93.20
7708;DHT22;3896;48.758;8.888;2023-06-10T03:31:37;13.00;93.30
7708;DHT22;3896;48.758;8.888;2023-06-10T03:34:04;13.00;93.40
7708;DHT22;3896;48.758;8.888;2023-06-10T03:36:29;13.00;93.70
7708;DHT22;3896;48.758;8.888;2023-06-10T03:38:55;13.00;93.80
7708;DHT22;3896;48.758;8.888;2023-06-10T03:41:22;12.90;94.00
7708;DHT22;3896;48.758;8.888;2023-06-10T03:43:48;12.90;94.20
7708;DHT22;3896;48.758;8.888;2023-06-10T03:46:13;12.90;94.40
7708;DHT22;3896;48.758;8.888;2023-06-10T03:48:39;12.90;94.60
7708;DHT22;3896;48.758;8.888;2023-06-10T03:51:05;12.90;94.80
7708;DHT22;3896;48.758;8.888;2023-06-10T03:53:30;12.80;95.30
7708;DHT22;3896;48.758;8.888;2023-06-10T03:55:56;12.80;95.70
7708;DHT22;3896;48.758;8.888;2023-06-10T03:58:22;12.80;96.10
7708;DHT22;3896;48.758;8.888;2023-06-10T04:00:48;12.80;96.10
7708;DHT22;3896;48.758;8.888;2023-06-10T04:03:15;12.80;96.30
7708;DHT22;3896;48.758;8.888;2023-06-10T04:05:41;12.80;96.70
7708;DHT22;3896;48.758;8.888;2023-06-10T04:08:07;12.80;97.00
7708;DHT22;3896;48.758;8.888;2023-06-10T04:10:33;12.70;97.20
7708;DHT22;3896;48.758;8.888;2023-06-10T04:12:58;12.70;97.50
7708;DHT22;3896;48.758;8.888;2023-06-10T04:15:24;12.70;97.50
7708;DHT22;3896;48.758;8.888;2023-06-10T04:17:50;12.70;97.90
7708;DHT22;3896;48.758;8.888;2023-06-10T04:20:16;12.70;98.30
7708;DHT22;3896;48.758;8.888;2023-06-10T04:22:41;12.70;98.70
7708;DHT22;3896;48.758;8.888;2023-06-10T04:25:09;12.70;98.60
7708;DHT22;3896;48.758;8.888;2023-06-10T04:27:34;12.80;98.80
7708;DHT22;3896;48.758;8.888;2023-06-10T04:30:00;12.80;99.20
7708;DHT22;3896;48.758;8.888;2023-06-10T04:32:25;12.80;99.40
7708;DHT22;3896;48.758;8.888;2023-06-10T04:34:51;12.80;99.80
7708;DHT22;3896;48.758;8.888;2023-06-10T04:37:17;12.80;99.90
7708;DHT22;3896;48.758;8.888;2023-06-10T04:39:43;12.80;99.90
7708;DHT22;3896;48.758;8.888;2023-06-10T04:42:09;12.90;99.90
7708;DHT22;3896;48.758;8.888;2023-06-10T04:44:34;12.90;99.90
7708;DHT22;3896;48.758;8.888;2023-06-10T04:47:00;12.90;99.90
7708;DHT22;3896;48.758;8.888;2023-06-10T04:49:26;13.00;99.90
7708;DHT22;3896;48.758;8.888;2023-06-10T04:51:51;13.00;99.90
7708;DHT22;3896;48.758;8.888;2023-06-10T04:54:17;13.00;99.90
7708;DHT22;3896;48.758;8.888;2023-06-10T04:56:42;13.10;99.90
7708;DHT22;3896;48.758;8.888;2023-06-10T04:59:08;13.10;99.90
7708;DHT22;3896;48.758;8.888;2023-06-10T05:01:33;13.10;99.90
7708;DHT22;3896;48.758;8.888;2023-06-10T05:03:59;13.20;99.90
7708;DHT22;3896;48.758;8.888;2023-06-10T05:06:25;13.20;99.90
7708;DHT22;3896;48.758;8.888;2023-06-10T05:08:50;13.30;99.90
7708;DHT22;3896;48.758;8.888;2023-06-10T05:11:16;13.30;99.90
7708;DHT22;3896;48.758;8.888;2023-06-10T05:13:42;13.40;99.90
7708;DHT22;3896;48.758;8.888;2023-06-10T05:16:08;13.40;99.90
7708;DHT22;3896;48.758;8.888;2023-06-10T05:18:34;13.50;99.90
7708;DHT22;3896;48.758;8.888;2023-06-10T05:21:01;13.50;99.90
7708;DHT22;3896;48.758;8.888;2023-06-10T05:23:26;13.60;99.90
7708;DHT22;3896;48.758;8.888;2023-06-10T05:25:52;13.60;99.90
7708;DHT22;3896;48.758;8.888;2023-06-10T05:28:17;13.90;99.90
7708;DHT22;3896;48.758;8.888;2023-06-10T05:30:43;13.90;99.90
7708;DHT22;3896;48.758;8.888;2023-06-10T05:33:09;13.90;99.90
7708;DHT22;3896;48.758;8.888;2023-06-10T05:35:34;14.00;99.90
7708;DHT22;3896;48.758;8.888;2023-06-10T05:38:00;14.00;99.90
7708;DHT22;3896;48.758;8.888;2023-06-10T05:40:25;14.10;99.90
7708;DHT22;3896;48.758;8.888;2023-06-10T05:42:51;14.10;99.90
7708;DHT22;3896;48.758;8.888;2023-06-10T05:45:17;14.20;99.70
7708;DHT22;3896;48.758;8.888;2023-06-10T05:47:42;14.20;99.40
7708;DHT22;3896;48.758;8.888;2023-06-10T05:50:08;14.30;99.10
7708;DHT22;3896;48.758;8.888;2023-06-10T05:52:35;14.30;99.10
7708;DHT22;3896;48.758;8.888;2023-06-10T05:55:01;14.40;98.90
7708;DHT22;3896;48.758;8.888;2023-06-10T05:57:27;14.50;98.80
7708;DHT22;3896;48.758;8.888;2023-06-10T05:59:52;14.60;98.60
7708;DHT22;3896;48.758;8.888;2023-06-10T06:02:18;14.70;98.60
7708;DHT22;3896;48.758;8.888;2023-06-10T06:04:43;14.70;98.40
7708;DHT22;3896;48.758;8.888;2023-06-10T06:07:10;14.80;98.40
7708;DHT22;3896;48.758;8.888;2023-06-10T06:09:36;14.90;98.60
7708;DHT22;3896;48.758;8.888;2023-06-10T06:12:01;15.00;98.70
7708;DHT22;3896;48.758;8.888;2023-06-10T06:14:31;15.00;98.80
7708;DHT22;3896;48.758;8.888;2023-06-10T06:16:57;15.10;98.80
7708;DHT22;3896;48.758;8.888;2023-06-10T06:19:23;15.20;99.00
7708;DHT22;3896;48.758;8.888;2023-06-10T06:21:48;15.30;99.20
7708;DHT22;3896;48.758;8.888;2023-06-10T06:24:15;15.40;99.70
7708;DHT22;3896;48.758;8.888;2023-06-10T06:26:41;15.50;99.90
7708;DHT22;3896;48.758;8.888;2023-06-10T06:29:07;15.60;99.90
7708;DHT22;3896;48.758;8.888;2023-06-10T06:31:32;15.60;99.90
7708;DHT22;3896;48.758;8.888;2023-06-10T06:33:58;15.80;99.90
7708;DHT22;3896;48.758;8.888;2023-06-10T06:36:23;15.90;99.90
7708;DHT22;3896;48.758;8.888;2023-06-10T06:38:49;16.00;99.90
7708;DHT22;3896;48.758;8.888;2023-06-10T06:41:14;16.10;99.90
7708;DHT22;3896;48.758;8.888;2023-06-10T06:43:40;16.20;99.90
7708;DHT22;3896;48.758;8.888;2023-06-10T06:46:05;16.20;99.90
7708;DHT22;3896;48.758;8.888;2023-06-10T06:48:31;16.40;99.90
7708;DHT22;3896;48.758;8.888;2023-06-10T06:50:56;16.40;99.90
7708;DHT22;3896;48.758;8.888;2023-06-10T06:53:23;16.60;99.90
7708;DHT22;3896;48.758;8.888;2023-06-10T06:55:49;16.70;99.90
7708;DHT22;3896;48.758;8.888;2023-06-10T06:58:14;16.80;99.90
7708;DHT22;3896;48.758;8.888;2023-06-10T07:00:40;16.90;99.90
7708;DHT22;3896;48.758;8.888;2023-06-10T07:03:05;17.00;99.90
7708;DHT22;3896;48.758;8.888;2023-06-10T07:05:31;17.10;99.90
7708;DHT22;3896;48.758;8.888;2023-06-10T07:07:56;17.20;99.90
7708;DHT22;3896;48.758;8.888;2023-06-10T07:10:23;17.40;99.90
7708;DHT22;3896;48.758;8.888;2023-06-10T07:12:48;17.50;99.90
7708;DHT22;3896;48.758;8.888;2023-06-10T07:15:14;17.60;99.90
7708;DHT22;3896;48.758;8.888;2023-06-10T07:17:40;17.80;99.90
7708;DHT22;3896;48.758;8.888;2023-06-10T07:20:06;17.90;99.60
7708;DHT22;3896;48.758;8.888;2023-06-10T07:22:32;18.10;99.50
7708;DHT22;3896;48.758;8.888;2023-06-10T07:24:57;18.20;98.70
7708;DHT22;3896;48.758;8.888;2023-06-10T07:27:23;18.30;98.30
7708;DHT22;3896;48.758;8.888;2023-06-10T07:29:48;18.50;97.70
7708;DHT22;3896;48.758;8.888;2023-06-10T07:32:14;18.60;97.20
7708;DHT22;3896;48.758;8.888;2023-06-10T07:34:39;18.70;96.80
7708;DHT22;3896;48.758;8.888;2023-06-10T07:37:05;18.90;96.60
7708;DHT22;3896;48.758;8.888;2023-06-10T07:39:32;19.10;96.40
7708;DHT22;3896;48.758;8.888;2023-06-10T07:41:57;19.20;95.70
7708;DHT22;3896;48.758;8.888;2023-06-10T07:44:23;19.30;95.20
7708;DHT22;3896;48.758;8.888;2023-06-10T07:46:49;19.50;94.70
7708;DHT22;3896;48.758;8.888;2023-06-10T07:49:15;19.60;93.70
7708;DHT22;3896;48.758;8.888;2023-06-10T07:51:40;19.80;93.20
7708;DHT22;3896;48.758;8.888;2023-06-10T07:54:06;19.90;92.60
7708;DHT22;3896;48.758;8.888;2023-06-10T07:56:31;20.10;92.20
7708;DHT22;3896;48.758;8.888;2023-06-10T07:58:58;20.20;91.80
7708;DHT22;3896;48.758;8.888;2023-06-10T08:01:24;20.30;91.30
7708;DHT22;3896;48.758;8.888;2023-06-10T08:03:49;20.50;91.00
7708;DHT22;3896;48.758;8.888;2023-06-10T08:06:15;20.60;90.10
7708;DHT22;3896;48.758;8.888;2023-06-10T08:08:43;20.80;89.60
7708;DHT22;3896;48.758;8.888;2023-06-10T08:11:12;20.90;88.30
7708;DHT22;3896;48.758;8.888;2023-06-10T08:13:38;21.10;87.80
7708;DHT22;3896;48.758;8.888;2023-06-10T08:16:05;21.20;86.40
7708;DHT22;3896;48.758;8.888;2023-06-10T08:18:31;21.40;85.70
7708;DHT22;3896;48.758;8.888;2023-06-10T08:20:59;21.50;84.60
7708;DHT22;3896;48.758;8.888;2023-06-10T08:23:24;21.70;83.80
7708;DHT22;3896;48.758;8.888;2023-06-10T08:25:50;21.80;82.50
7708;DHT22;3896;48.758;8.888;2023-06-10T08:28:16;22.00;81.40
7708;DHT22;3896;48.758;8.888;2023-06-10T08:30:42;22.20;80.60
7708;DHT22;3896;48.758;8.888;2023-06-10T08:33:07;22.40;79.60
7708;DHT22;3896;48.758;8.888;2023-06-10T08:35:33;22.50;78.30
7708;DHT22;3896;48.758;8.888;2023-06-10T08:37:58;22.70;77.30
7708;DHT22;3896;48.758;8.888;2023-06-10T08:40:24;22.90;76.60
7708;DHT22;3896;48.758;8.888;2023-06-10T08:43:06;23.00;76.20
7708;DHT22;3896;48.758;8.888;2023-06-10T08:45:36;23.20;75.40
7708;DHT22;3896;48.758;8.888;2023-06-10T08:48:05;23.30;74.30
7708;DHT22;3896;48.758;8.888;2023-06-10T08:50:35;23.50;73.70
7708;DHT22;3896;48.758;8.888;2023-06-10T08:53:06;23.70;73.30
7708;DHT22;3896;48.758;8.888;2023-06-10T08:55:33;23.80;72.90
7708;DHT22;3896;48.758;8.888;2023-06-10T08:58:00;23.90;72.10
7708;DHT22;3896;48.758;8.888;2023-06-10T09:00:26;24.10;71.30
7708;DHT22;3896;48.758;8.888;2023-06-10T09:02:52;24.20;70.90
7708;DHT22;3896;48.758;8.888;2023-06-10T09:05:18;24.40;70.60
7708;DHT22;3896;48.758;8.888;2023-06-10T09:07:46;24.60;70.00
7708;DHT22;3896;48.758;8.888;2023-06-10T09:10:12;24.70;68.70
7708;DHT22;3896;48.758;8.888;2023-06-10T09:12:38;24.80;68.30
7708;DHT22;3896;48.758;8.888;2023-06-10T09:15:05;25.00;67.90
7708;DHT22;3896;48.758;8.888;2023-06-10T09:17:31;25.10;67.30
7708;DHT22;3896;48.758;8.888;2023-06-10T09:19:56;25.30;66.10
7708;DHT22;3896;48.758;8.888;2023-06-10T09:22:23;25.40;64.80
7708;DHT22;3896;48.758;8.888;2023-06-10T09:24:49;25.60;63.30
7708;DHT22;3896;48.758;8.888;2023-06-10T09:27:15;25.70;62.90
7708;DHT22;3896;48.758;8.888;2023-06-10T09:30:01;25.90;61.80
7708;DHT22;3896;48.758;8.888;2023-06-10T09:32:26;26.10;61.90
7708;DHT22;3896;48.758;8.888;2023-06-10T09:34:52;26.20;61.00
7708;DHT22;3896;48.758;8.888;2023-06-10T09:37:22;26.40;60.20
7708;DHT22;3896;48.758;8.888;2023-06-10T09:40:02;26.50;59.70
7708;DHT22;3896;48.758;8.888;2023-06-10T09:42:32;26.60;59.50
7708;DHT22;3896;48.758;8.888;2023-06-10T09:44:58;26.80;58.80
7708;DHT22;3896;48.758;8.888;2023-06-10T09:47:24;26.90;58.50
7708;DHT22;3896;48.758;8.888;2023-06-10T09:49:50;27.10;57.90
7708;DHT22;3896;48.758;8.888;2023-06-10T09:52:22;27.20;57.40
7708;DHT22;3896;48.758;8.888;2023-06-10T09:54:50;27.40;57.60
7708;DHT22;3896;48.758;8.888;2023-06-10T09:57:16;27.60;56.80
7708;DHT22;3896;48.758;8.888;2023-06-10T09:59:42;27.70;56.70
7708;DHT22;3896;48.758;8.888;2023-06-10T10:02:16;27.80;56.50
7708;DHT22;3896;48.758;8.888;2023-06-10T10:04:45;27.90;56.70
7708;DHT22;3896;48.758;8.888;2023-06-10T10:07:12;28.00;56.90
7708;DHT22;3896;48.758;8.888;2023-06-10T10:09:41;28.10;56.20
7708;DHT22;3896;48.758;8.888;2023-06-10T10:12:12;28.20;55.70
7708;DHT22;3896;48.758;8.888;2023-06-10T10:14:39;28.30;55.70
7708;DHT22;3896;48.758;8.888;2023-06-10T10:17:09;28.50;55.30
7708;DHT22;3896;48.758;8.888;2023-06-10T10:19:40;28.60;55.40
7708;DHT22;3896;48.758;8.888;2023-06-10T10:22:12;28.80;55.00
7708;DHT22;3896;48.758;8.888;2023-06-10T10:24:49;28.80;54.70
7708;DHT22;3896;48.758;8.888;2023-06-10T10:27:19;28.90;53.90
7708;DHT22;3896;48.758;8.888;2023-06-10T10:29:48;29.00;53.30
7708;DHT22;3896;48.758;8.888;2023-06-10T10:32:16;29.10;53.00
7708;DHT22;3896;48.758;8.888;2023-06-10T10:34:47;29.20;52.80
7708;DHT22;3896;48.758;8.888;2023-06-10T10:37:15;29.40;52.60
7708;DHT22;3896;48.758;8.888;2023-06-10T10:39:42;29.50;51.70
7708;DHT22;3896;48.758;8.888;2023-06-10T10:42:08;29.60;51.40
7708;DHT22;3896;48.758;8.888;2023-06-10T10:44:39;29.70;50.90
7708;DHT22;3896;48.758;8.888;2023-06-10T10:47:08;29.80;50.10
7708;DHT22;3896;48.758;8.888;2023-06-10T10:49:35;29.90;49.80
7708;DHT22;3896;48.758;8.888;2023-06-10T10:52:02;30.00;49.80
7708;DHT22;3896;48.758;8.888;2023-06-10T10:54:37;30.10;49.70
7708;DHT22;3896;48.758;8.888;2023-06-10T10:57:20;30.20;49.50
7708;DHT22;3896;48.758;8.888;2023-06-10T10:59:52;30.30;49.50
7708;DHT22;3896;48.758;8.888;2023-06-10T11:02:19;30.50;49.20
7708;DHT22;3896;48.758;8.888;2023-06-10T11:04:57;30.70;48.40
7708;DHT22;3896;48.758;8.888;2023-06-10T11:07:25;30.90;47.80
7708;DHT22;3896;48.758;8.888;2023-06-10T11:10:08;31.10;48.00
7708;DHT22;3896;48.758;8.888;2023-06-10T11:15:32;31.30;47.60
7708;DHT22;3896;48.758;8.888;2023-06-10T11:18:21;31.40;47.50
7708;DHT22;3896;48.758;8.888;2023-06-10T11:20:51;31.50;47.30
7708;DHT22;3896;48.758;8.888;2023-06-10T11:26:21;31.60;46.50
7708;DHT22;3896;48.758;8.888;2023-06-10T11:34:01;31.90;46.00
7708;DHT22;3896;48.758;8.888;2023-06-10T11:36:28;31.90;45.90
7708;DHT22;3896;48.758;8.888;2023-06-10T11:39:02;32.10;45.40
7708;DHT22;3896;48.758;8.888;2023-06-10T11:41:29;32.20;45.20
7708;DHT22;3896;48.758;8.888;2023-06-10T11:43:59;32.30;44.80
7708;DHT22;3896;48.758;8.888;2023-06-10T11:46:26;32.30;44.80
7708;DHT22;3896;48.758;8.888;2023-06-10T11:48:57;32.40;44.80
7708;DHT22;3896;48.758;8.888;2023-06-10T11:51:34;32.50;44.30
7708;DHT22;3896;48.758;8.888;2023-06-10T11:54:00;32.50;43.70
7708;DHT22;3896;48.758;8.888;2023-06-10T11:56:27;32.50;43.70
7708;DHT22;3896;48.758;8.888;2023-06-10T11:58:58;32.60;43.80
7708;DHT22;3896;48.758;8.888;2023-06-10T12:01:25;32.60;43.30
7708;DHT22;3896;48.758;8.888;2023-06-10T12:04:02;32.60;43.20
7708;DHT22;3896;48.758;8.888;2023-06-10T12:06:38;32.60;43.00
7708;DHT22;3896;48.758;8.888;2023-06-10T12:09:04;32.60;43.10
7708;DHT22;3896;48.758;8.888;2023-06-10T12:11:29;32.60;43.20
7708;DHT22;3896;48.758;8.888;2023-06-10T12:13:55;32.60;42.80
7708;DHT22;3896;48.758;8.888;2023-06-10T12:16:20;32.70;42.40
7708;DHT22;3896;48.758;8.888;2023-06-10T12:18:46;32.90;41.90
7708;DHT22;3896;48.758;8.888;2023-06-10T12:21:19;33.00;41.80
7708;DHT22;3896;48.758;8.888;2023-06-10T12:24:09;33.10;42.00
7708;DHT22;3896;48.758;8.888;2023-06-10T12:26:42;33.00;41.50
7708;DHT22;3896;48.758;8.888;2023-06-10T12:29:17;33.10;41.90
7708;DHT22;3896;48.758;8.888;2023-06-10T12:31:58;33.20;41.70
7708;DHT22;3896;48.758;8.888;2023-06-10T12:34:30;33.30;41.40
7708;DHT22;3896;48.758;8.888;2023-06-10T12:36:56;33.40;41.20
7708;DHT22;3896;48.758;8.888;2023-06-10T12:39:22;33.60;41.00
7708;DHT22;3896;48.758;8.888;2023-06-10T12:41:48;33.70;40.60
7708;DHT22;3896;48.758;8.888;2023-06-10T12:44:15;33.80;40.40
7708;DHT22;3896;48.758;8.888;2023-06-10T12:46:40;33.90;40.20
7708;DHT22;3896;48.758;8.888;2023-06-10T12:49:06;34.00;40.20
7708;DHT22;3896;48.758;8.888;2023-06-10T12:51:31;34.10;39.80
7708;DHT22;3896;48.758;8.888;2023-06-10T12:53:57;34.10;39.80
7708;DHT22;3896;48.758;8.888;2023-06-10T12:56:23;34.00;39.50
7708;DHT22;3896;48.758;8.888;2023-06-10T12:58:49;34.00;39.90
7708;DHT22;3896;48.758;8.888;2023-06-10T13:01:14;34.00;39.40
7708;DHT22;3896;48.758;8.888;2023-06-10T13:03:40;34.00;39.20
7708;DHT22;3896;48.758;8.888;2023-06-10T13:06:06;34.20;39.00
7708;DHT22;3896;48.758;8.888;2023-06-10T13:08:32;34.30;38.70
7708;DHT22;3896;48.758;8.888;2023-06-10T13:10:58;34.40;38.60
7708;DHT22;3896;48.758;8.888;2023-06-10T13:13:23;34.50;38.20
7708;DHT22;3896;48.758;8.888;2023-06-10T13:15:49;34.50;37.90
7708;DHT22;3896;48.758;8.888;2023-06-10T13:18:15;34.50;37.80
7708;DHT22;3896;48.758;8.888;2023-06-10T13:20:43;34.40;37.70
7708;DHT22;3896;48.758;8.888;2023-06-10T13:23:08;34.50;37.80
7708;DHT22;3896;48.758;8.888;2023-06-10T13:25:34;34.50;38.00
7708;DHT22;3896;48.758;8.888;2023-06-10T13:28:00;34.60;38.30
7708;DHT22;3896;48.758;8.888;2023-06-10T13:30:25;34.70;38.20
7708;DHT22;3896;48.758;8.888;2023-06-10T13:32:51;34.80;37.90
7708;DHT22;3896;48.758;8.888;2023-06-10T13:35:17;34.80;37.40
7708;DHT22;3896;48.758;8.888;2023-06-10T13:37:42;34.90;37.30
7708;DHT22;3896;48.758;8.888;2023-06-10T13:40:08;34.90;37.40
7708;DHT22;3896;48.758;8.888;2023-06-10T13:42:35;34.80;37.40
7708;DHT22;3896;48.758;8.888;2023-06-10T13:45:02;34.80;37.50
7708;DHT22;3896;48.758;8.888;2023-06-10T13:47:29;34.80;37.50
7708;DHT22;3896;48.758;8.888;2023-06-10T13:49:54;34.80;37.70
7708;DHT22;3896;48.758;8.888;2023-06-10T13:52:20;34.80;37.70
7708;DHT22;3896;48.758;8.888;2023-06-10T13:54:46;34.80;37.70
7708;DHT22;3896;48.758;8.888;2023-06-10T13:57:11;34.70;37.90
7708;DHT22;3896;48.758;8.888;2023-06-10T13:59:37;34.80;37.50
7708;DHT22;3896;48.758;8.888;2023-06-10T14:02:03;34.80;37.70
7708;DHT22;3896;48.758;8.888;2023-06-10T14:04:29;34.80;37.90
7708;DHT22;3896;48.758;8.888;2023-06-10T14:06:54;34.80;37.70
7708;DHT22;3896;48.758;8.888;2023-06-10T14:09:20;34.80;37.60
7708;DHT22;3896;48.758;8.888;2023-06-10T14:11:46;34.90;37.60
7708;DHT22;3896;48.758;8.888;2023-06-10T14:14:12;34.90;37.50
7708;DHT22;3896;48.758;8.888;2023-06-10T14:16:39;35.00;36.80
7708;DHT22;3896;48.758;8.888;2023-06-10T14:19:05;35.20;36.80
7708;DHT22;3896;48.758;8.888;2023-06-10T14:21:30;35.30;36.70
7708;DHT22;3896;48.758;8.888;2023-06-10T14:23:56;35.50;36.00
7708;DHT22;3896;48.758;8.888;2023-06-10T14:26:21;35.60;35.60
7708;DHT22;3896;48.758;8.888;2023-06-10T14:28:48;35.60;35.30
7708;DHT22;3896;48.758;8.888;2023-06-10T14:31:14;35.80;35.10
7708;DHT22;3896;48.758;8.888;2023-06-10T14:33:40;35.90;35.00
7708;DHT22;3896;48.758;8.888;2023-06-10T14:36:07;36.00;34.80
7708;DHT22;3896;48.758;8.888;2023-06-10T14:38:33;36.10;34.70
7708;DHT22;3896;48.758;8.888;2023-06-10T14:40:58;36.20;34.60
7708;DHT22;3896;48.758;8.888;2023-06-10T14:43:24;36.20;34.20
7708;DHT22;3896;48.758;8.888;2023-06-10T14:45:49;36.30;33.90
7708;DHT22;3896;48.758;8.888;2023-06-10T14:48:16;36.50;34.10
7708;DHT22;3896;48.758;8.888;2023-06-10T14:50:42;36.60;34.40
7708;DHT22;3896;48.758;8.888;2023-06-10T14:53:10;36.70;34.30
7708;DHT22;3896;48.758;8.888;2023-06-10T14:55:36;36.80;34.00
7708;DHT22;3896;48.758;8.888;2023-06-10T14:58:01;36.90;34.10
7708;DHT22;3896;48.758;8.888;2023-06-10T15:00:27;36.90;33.70
7708;DHT22;3896;48.758;8.888;2023-06-10T15:02:53;37.00;33.60
7708;DHT22;3896;48.758;8.888;2023-06-10T15:05:20;37.10;33.30
7708;DHT22;3896;48.758;8.888;2023-06-10T15:07:46;37.20;33.20
7708;DHT22;3896;48.758;8.888;2023-06-10T15:10:12;37.20;32.90
7708;DHT22;3896;48.758;8.888;2023-06-10T15:12:38;37.20;32.80
7708;DHT22;3896;48.758;8.888;2023-06-10T15:15:04;37.20;32.60
7708;DHT22;3896;48.758;8.888;2023-06-10T15:17:29;37.30;32.50
7708;DHT22;3896;48.758;8.888;2023-06-10T15:19:55;37.30;32.30
7708;DHT22;3896;48.758;8.888;2023-06-10T15:22:21;37.30;31.90
7708;DHT22;3896;48.758;8.888;2023-06-10T15:24:46;37.20;32.00
7708;DHT22;3896;48.758;8.888;2023-06-10T15:27:12;37.10;32.20
7708;DHT22;3896;48.758;8.888;2023-06-10T15:29:38;37.00;32.40
7708;DHT22;3896;48.758;8.888;2023-06-10T15:32:04;36.90;32.80
7708;DHT22;3896;48.758;8.888;2023-06-10T15:34:29;36.70;33.10
7708;DHT22;3896;48.758;8.888;2023-06-10T15:36:55;36.60;33.50
7708;DHT22;3896;48.758;8.888;2023-06-10T15:39:20;36.40;33.60
7708;DHT22;3896;48.758;8.888;2023-06-10T15:41:46;36.20;33.80
7708;DHT22;3896;48.758;8.888;2023-06-10T15:44:12;36.10;34.00
7708;DHT22;3896;48.758;8.888;2023-06-10T15:46:37;36.10;34.30
7708;DHT22;3896;48.758;8.888;2023-06-10T15:49:03;35.90;34.10
7708;DHT22;3896;48.758;8.888;2023-06-10T15:51:29;35.80;34.20
7708;DHT22;3896;48.758;8.888;2023-06-10T15:53:55;35.70;34.20
7708;DHT22;3896;48.758;8.888;2023-06-10T15:56:21;35.60;34.10
7708;DHT22;3896;48.758;8.888;2023-06-10T15:58:47;35.50;34.10
7708;DHT22;3896;48.758;8.888;2023-06-10T16:01:12;35.30;34.60
7708;DHT22;3896;48.758;8.888;2023-06-10T16:03:39;35.20;34.80
7708;DHT22;3896;48.758;8.888;2023-06-10T16:06:05;35.10;35.00
7708;DHT22;3896;48.758;8.888;2023-06-10T16:08:31;35.00;35.20
7708;DHT22;3896;48.758;8.888;2023-06-10T16:10:56;34.90;35.30
7708;DHT22;3896;48.758;8.888;2023-06-10T16:13:22;34.80;35.50
7708;DHT22;3896;48.758;8.888;2023-06-10T16:15:47;34.70;35.40